sensor_id;sensor_type;location;lat;lon;timestamp;P1;durP1;ratioP1;P2;durP2;ratioP2
32521;SDS011;18963;51.504;5.316;2023-05-14T00:01:14;13.32;;;8.00;;
32521;SDS011;18963;51.504;5.316;2023-05-14T00:03:40;13.23;;;7.82;;
32521;SDS011;18963;51.504;5.316;2023-05-14T00:06:06;11.82;;;7.63;;
32521;SDS011;18963;51.504;5.316;2023-05-14T00:08:32;13.95;;;8.35;;
32521;SDS011;18963;51.504;5.316;2023-05-14T00:10:58;14.95;;;9.05;;
32521;SDS011;18963;51.504;5.316;2023-05-14T00:13:24;14.23;;;9.00;;
32521;SDS011;18963;51.504;5.316;2023-05-14T00:15:50;16.30;;;9.98;;
32521;SDS011;18963;51.504;5.316;2023-05-14T00:18:16;14.45;;;9.35;;
32521;SDS011;18963;51.504;5.316;2023-05-14T00:20:41;17.30;;;11.18;;
32521;SDS011;18963;51.504;5.316;2023-05-14T00:23:07;17.23;;;11.43;;
32521;SDS011;18963;51.504;5.316;2023-05-14T00:25:33;15.48;;;10.50;;
32521;SDS011;18963;51.504;5.316;2023-05-14T00:27:58;16.67;;;11.65;;
32521;SDS011;18963;51.504;5.316;2023-05-14T00:30:24;16.88;;;11.65;;
32521;SDS011;18963;51.504;5.316;2023-05-14T00:32:50;18.48;;;10.90;;
32521;SDS011;18963;51.504;5.316;2023-05-14T00:35:15;16.38;;;11.23;;
32521;SDS011;18963;51.504;5.316;2023-05-14T00:37:41;20.27;;;11.32;;
32521;SDS011;18963;51.504;5.316;2023-05-14T00:40:06;18.23;;;11.32;;
32521;SDS011;18963;51.504;5.316;2023-05-14T00:42:33;20.05;;;12.13;;
32521;SDS011;18963;51.504;5.316;2023-05-14T00:44:58;21.30;;;11.75;;
32521;SDS011;18963;51.504;5.316;2023-05-14T00:47:24;18.52;;;11.73;;
32521;SDS011;18963;51.504;5.316;2023-05-14T00:49:50;18.55;;;11.93;;
32521;SDS011;18963;51.504;5.316;2023-05-14T00:52:16;22.10;;;12.73;;
32521;SDS011;18963;51.504;5.316;2023-05-14T00:54:43;18.58;;;11.73;;
32521;SDS011;18963;51.504;5.316;2023-05-14T00:57:10;17.70;;;11.23;;
32521;SDS011;18963;51.504;5.316;2023-05-14T00:59:36;20.30;;;12.43;;
32521;SDS011;18963;51.504;5.316;2023-05-14T01:02:04;20.42;;;12.85;;
32521;SDS011;18963;51.504;5.316;2023-05-14T01:04:30;20.00;;;12.93;;
32521;SDS011;18963;51.504;5.316;2023-05-14T01:07:03;20.77;;;13.90;;
32521;SDS011;18963;51.504;5.316;2023-05-14T01:09:41;21.33;;;15.52;;
32521;SDS011;18963;51.504;5.316;2023-05-14T01:15:00;21.02;;;14.98;;
32521;SDS011;18963;51.504;5.316;2023-05-14T01:17:30;19.55;;;15.25;;
32521;SDS011;18963;51.504;5.316;2023-05-14T01:20:01;25.30;;;14.55;;
32521;SDS011;18963;51.504;5.316;2023-05-14T01:22:27;22.75;;;13.57;;
32521;SDS011;18963;51.504;5.316;2023-05-14T01:24:52;21.27;;;13.02;;
32521;SDS011;18963;51.504;5.316;2023-05-14T01:27:24;20.92;;;13.48;;
32521;SDS011;18963;51.504;5.316;2023-05-14T01:33:10;18.35;;;12.98;;
32521;SDS011;18963;51.504;5.316;2023-05-14T01:35:37;21.50;;;13.13;;
32521;SDS011;18963;51.504;5.316;2023-05-14T01:38:05;20.83;;;13.48;;
32521;SDS011;18963;51.504;5.316;2023-05-14T01:40:35;19.70;;;13.30;;
32521;SDS011;18963;51.504;5.316;2023-05-14T01:43:02;20.50;;;13.35;;
32521;SDS011;18963;51.504;5.316;2023-05-14T01:45:29;19.98;;;13.18;;
32521;SDS011;18963;51.504;5.316;2023-05-14T01:47:55;20.95;;;14.18;;
32521;SDS011;18963;51.504;5.316;2023-05-14T01:50:20;24.90;;;15.85;;
32521;SDS011;18963;51.504;5.316;2023-05-14T01:52:46;21.77;;;15.27;;
32521;SDS011;18963;51.504;5.316;2023-05-14T01:55:12;22.80;;;16.27;;
32521;SDS011;18963;51.504;5.316;2023-05-14T01:57:38;22.70;;;16.15;;
32521;SDS011;18963;51.504;5.316;2023-05-14T02:00:04;24.33;;;15.80;;
32521;SDS011;18963;51.504;5.316;2023-05-14T02:02:30;24.67;;;16.48;;
32521;SDS011;18963;51.504;5.316;2023-05-14T02:07:21;22.50;;;16.40;;
32521;SDS011;18963;51.504;5.316;2023-05-14T02:09:47;25.85;;;16.75;;
32521;SDS011;18963;51.504;5.316;2023-05-14T02:12:12;24.35;;;16.25;;
32521;SDS011;18963;51.504;5.316;2023-05-14T02:14:38;22.63;;;15.82;;
32521;SDS011;18963;51.504;5.316;2023-05-14T02:17:03;23.35;;;16.67;;
32521;SDS011;18963;51.504;5.316;2023-05-14T02:19:29;21.98;;;16.13;;
32521;SDS011;18963;51.504;5.316;2023-05-14T02:21:55;24.63;;;16.60;;
32521;SDS011;18963;51.504;5.316;2023-05-14T02:26:46;22.55;;;17.05;;
32521;SDS011;18963;51.504;5.316;2023-05-14T02:29:12;26.65;;;17.40;;
32521;SDS011;18963;51.504;5.316;2023-05-14T02:31:37;25.38;;;15.40;;
32521;SDS011;18963;51.504;5.316;2023-05-14T02:34:03;25.50;;;16.55;;
32521;SDS011;18963;51.504;5.316;2023-05-14T02:36:30;21.23;;;14.88;;
32521;SDS011;18963;51.504;5.316;2023-05-14T02:41:22;21.95;;;15.88;;
32521;SDS011;18963;51.504;5.316;2023-05-14T02:43:48;19.88;;;14.77;;
32521;SDS011;18963;51.504;5.316;2023-05-14T02:46:13;24.83;;;17.15;;
32521;SDS011;18963;51.504;5.316;2023-05-14T02:48:39;24.95;;;17.13;;
32521;SDS011;18963;51.504;5.316;2023-05-14T02:53:31;25.35;;;16.25;;
32521;SDS011;18963;51.504;5.316;2023-05-14T02:55:57;26.63;;;17.90;;
32521;SDS011;18963;51.504;5.316;2023-05-14T02:58:22;25.83;;;17.88;;
32521;SDS011;18963;51.504;5.316;2023-05-14T03:03:13;27.15;;;17.10;;
32521;SDS011;18963;51.504;5.316;2023-05-14T03:05:39;27.50;;;16.92;;
32521;SDS011;18963;51.504;5.316;2023-05-14T03:08:04;28.83;;;18.25;;
32521;SDS011;18963;51.504;5.316;2023-05-14T03:10:30;27.23;;;17.58;;
32521;SDS011;18963;51.504;5.316;2023-05-14T03:12:56;27.48;;;17.02;;
32521;SDS011;18963;51.504;5.316;2023-05-14T03:17:48;24.00;;;16.00;;
32521;SDS011;18963;51.504;5.316;2023-05-14T03:20:13;23.50;;;16.40;;
32521;SDS011;18963;51.504;5.316;2023-05-14T03:25:05;25.98;;;17.42;;
32521;SDS011;18963;51.504;5.316;2023-05-14T03:29:57;24.25;;;15.82;;
32521;SDS011;18963;51.504;5.316;2023-05-14T03:32:23;23.05;;;15.95;;
32521;SDS011;18963;51.504;5.316;2023-05-14T03:34:48;27.48;;;16.23;;
32521;SDS011;18963;51.504;5.316;2023-05-14T03:37:14;26.17;;;16.23;;
32521;SDS011;18963;51.504;5.316;2023-05-14T03:42:05;28.45;;;16.85;;
32521;SDS011;18963;51.504;5.316;2023-05-14T03:46:56;23.05;;;14.80;;
32521;SDS011;18963;51.504;5.316;2023-05-14T03:49:22;28.15;;;17.73;;
32521;SDS011;18963;51.504;5.316;2023-05-14T03:51:48;29.13;;;17.73;;
32521;SDS011;18963;51.504;5.316;2023-05-14T03:56:39;26.20;;;17.55;;
32521;SDS011;18963;51.504;5.316;2023-05-14T04:01:30;26.25;;;17.55;;
32521;SDS011;18963;51.504;5.316;2023-05-14T04:03:56;29.05;;;18.88;;
32521;SDS011;18963;51.504;5.316;2023-05-14T04:06:22;29.15;;;20.15;;
32521;SDS011;18963;51.504;5.316;2023-05-14T04:08:47;26.13;;;19.00;;
32521;SDS011;18963;51.504;5.316;2023-05-14T04:13:38;26.20;;;18.90;;
32521;SDS011;18963;51.504;5.316;2023-05-14T04:16:04;30.95;;;18.52;;
32521;SDS011;18963;51.504;5.316;2023-05-14T04:20:58;27.73;;;19.50;;
32521;SDS011;18963;51.504;5.316;2023-05-14T04:25:50;31.65;;;18.73;;
32521;SDS011;18963;51.504;5.316;2023-05-14T04:30:41;30.15;;;19.98;;
32521;SDS011;18963;51.504;5.316;2023-05-14T04:35:32;27.15;;;18.10;;
32521;SDS011;18963;51.504;5.316;2023-05-14T04:40:23;30.98;;;17.27;;
32521;SDS011;18963;51.504;5.316;2023-05-14T04:42:49;30.90;;;18.90;;
32521;SDS011;18963;51.504;5.316;2023-05-14T04:47:40;28.85;;;18.17;;
32521;SDS011;18963;51.504;5.316;2023-05-14T04:52:34;31.65;;;20.05;;
32521;SDS011;18963;51.504;5.316;2023-05-14T04:57:25;30.40;;;18.77;;
32521;SDS011;18963;51.504;5.316;2023-05-14T05:02:16;30.50;;;17.95;;
32521;SDS011;18963;51.504;5.316;2023-05-14T05:04:42;30.17;;;18.80;;
32521;SDS011;18963;51.504;5.316;2023-05-14T05:07:07;27.85;;;18.77;;
32521;SDS011;18963;51.504;5.316;2023-05-14T05:09:33;35.08;;;19.92;;
32521;SDS011;18963;51.504;5.316;2023-05-14T05:11:59;28.50;;;19.60;;
32521;SDS011;18963;51.504;5.316;2023-05-14T05:14:25;33.38;;;19.60;;
32521;SDS011;18963;51.504;5.316;2023-05-14T05:19:16;29.08;;;19.63;;
32521;SDS011;18963;51.504;5.316;2023-05-14T05:21:42;41.72;;;20.92;;
32521;SDS011;18963;51.504;5.316;2023-05-14T05:24:08;26.60;;;17.67;;
32521;SDS011;18963;51.504;5.316;2023-05-14T05:29:02;29.60;;;18.85;;
32521;SDS011;18963;51.504;5.316;2023-05-14T05:31:28;27.70;;;19.02;;
32521;SDS011;18963;51.504;5.316;2023-05-14T05:36:20;30.48;;;17.50;;
32521;SDS011;18963;51.504;5.316;2023-05-14T05:41:11;23.08;;;16.48;;
32521;SDS011;18963;51.504;5.316;2023-05-14T05:43:36;26.63;;;17.35;;
32521;SDS011;18963;51.504;5.316;2023-05-14T05:46:02;24.95;;;17.30;;
32521;SDS011;18963;51.504;5.316;2023-05-14T05:48:27;24.05;;;15.50;;
32521;SDS011;18963;51.504;5.316;2023-05-14T05:50:53;25.00;;;16.00;;
32521;SDS011;18963;51.504;5.316;2023-05-14T05:53:19;23.70;;;15.52;;
32521;SDS011;18963;51.504;5.316;2023-05-14T05:55:44;27.60;;;16.60;;
32521;SDS011;18963;51.504;5.316;2023-05-14T05:58:10;26.42;;;16.20;;
32521;SDS011;18963;51.504;5.316;2023-05-14T06:00:36;24.98;;;16.52;;
32521;SDS011;18963;51.504;5.316;2023-05-14T06:03:02;23.13;;;15.93;;
32521;SDS011;18963;51.504;5.316;2023-05-14T06:05:27;23.17;;;15.23;;
32521;SDS011;18963;51.504;5.316;2023-05-14T06:07:53;28.27;;;17.00;;
32521;SDS011;18963;51.504;5.316;2023-05-14T06:10:18;27.75;;;16.17;;
32521;SDS011;18963;51.504;5.316;2023-05-14T06:12:44;24.73;;;15.90;;
32521;SDS011;18963;51.504;5.316;2023-05-14T06:15:09;20.65;;;14.90;;
32521;SDS011;18963;51.504;5.316;2023-05-14T06:17:36;25.02;;;15.63;;
32521;SDS011;18963;51.504;5.316;2023-05-14T06:20:02;22.27;;;14.15;;
32521;SDS011;18963;51.504;5.316;2023-05-14T06:22:29;20.13;;;13.95;;
32521;SDS011;18963;51.504;5.316;2023-05-14T06:24:55;23.52;;;14.25;;
32521;SDS011;18963;51.504;5.316;2023-05-14T06:27:21;20.10;;;13.40;;
32521;SDS011;18963;51.504;5.316;2023-05-14T06:29:46;20.75;;;14.65;;
32521;SDS011;18963;51.504;5.316;2023-05-14T06:32:12;20.13;;;14.02;;
32521;SDS011;18963;51.504;5.316;2023-05-14T06:34:39;23.27;;;14.23;;
32521;SDS011;18963;51.504;5.316;2023-05-14T06:37:06;18.90;;;13.05;;
32521;SDS011;18963;51.504;5.316;2023-05-14T06:39:33;20.40;;;13.48;;
32521;SDS011;18963;51.504;5.316;2023-05-14T06:41:59;20.35;;;13.63;;
32521;SDS011;18963;51.504;5.316;2023-05-14T06:44:26;19.02;;;12.35;;
32521;SDS011;18963;51.504;5.316;2023-05-14T06:46:52;22.20;;;12.93;;
32521;SDS011;18963;51.504;5.316;2023-05-14T06:49:17;19.83;;;13.60;;
32521;SDS011;18963;51.504;5.316;2023-05-14T06:51:43;17.73;;;12.75;;
32521;SDS011;18963;51.504;5.316;2023-05-14T06:54:09;25.38;;;13.43;;
32521;SDS011;18963;51.504;5.316;2023-05-14T06:56:35;20.75;;;13.65;;
32521;SDS011;18963;51.504;5.316;2023-05-14T06:59:01;21.30;;;12.70;;
32521;SDS011;18963;51.504;5.316;2023-05-14T07:01:26;21.80;;;12.80;;
32521;SDS011;18963;51.504;5.316;2023-05-14T07:03:52;20.85;;;12.57;;
32521;SDS011;18963;51.504;5.316;2023-05-14T07:06:18;19.88;;;13.00;;
32521;SDS011;18963;51.504;5.316;2023-05-14T07:08:43;16.42;;;11.82;;
32521;SDS011;18963;51.504;5.316;2023-05-14T07:11:10;15.68;;;12.25;;
32521;SDS011;18963;51.504;5.316;2023-05-14T07:13:37;18.95;;;12.80;;
32521;SDS011;18963;51.504;5.316;2023-05-14T07:16:03;19.17;;;13.18;;
32521;SDS011;18963;51.504;5.316;2023-05-14T07:18:30;20.42;;;12.65;;
32521;SDS011;18963;51.504;5.316;2023-05-14T07:20:55;18.67;;;12.23;;
32521;SDS011;18963;51.504;5.316;2023-05-14T07:23:21;19.02;;;11.85;;
32521;SDS011;18963;51.504;5.316;2023-05-14T07:25:47;17.25;;;11.30;;
32521;SDS011;18963;51.504;5.316;2023-05-14T07:28:12;19.98;;;11.73;;
32521;SDS011;18963;51.504;5.316;2023-05-14T07:30:38;16.42;;;11.07;;
32521;SDS011;18963;51.504;5.316;2023-05-14T07:33:03;18.95;;;12.20;;
32521;SDS011;18963;51.504;5.316;2023-05-14T07:35:29;16.88;;;11.43;;
32521;SDS011;18963;51.504;5.316;2023-05-14T07:37:54;16.63;;;11.57;;
32521;SDS011;18963;51.504;5.316;2023-05-14T07:40:20;16.42;;;10.93;;
32521;SDS011;18963;51.504;5.316;2023-05-14T07:42:46;16.55;;;11.48;;
32521;SDS011;18963;51.504;5.316;2023-05-14T07:45:12;13.70;;;10.45;;
32521;SDS011;18963;51.504;5.316;2023-05-14T07:47:37;16.00;;;10.68;;
32521;SDS011;18963;51.504;5.316;2023-05-14T07:50:04;13.80;;;10.48;;
32521;SDS011;18963;51.504;5.316;2023-05-14T07:52:31;14.73;;;10.85;;
32521;SDS011;18963;51.504;5.316;2023-05-14T07:54:56;13.85;;;10.25;;
32521;SDS011;18963;51.504;5.316;2023-05-14T07:57:22;13.77;;;10.23;;
32521;SDS011;18963;51.504;5.316;2023-05-14T07:59:48;15.30;;;10.25;;
32521;SDS011;18963;51.504;5.316;2023-05-14T08:02:13;15.90;;;10.35;;
32521;SDS011;18963;51.504;5.316;2023-05-14T08:04:40;15.10;;;10.55;;
32521;SDS011;18963;51.504;5.316;2023-05-14T08:07:06;15.75;;;10.23;;
32521;SDS011;18963;51.504;5.316;2023-05-14T08:09:32;16.38;;;9.95;;
32521;SDS011;18963;51.504;5.316;2023-05-14T08:11:58;13.63;;;9.73;;
32521;SDS011;18963;51.504;5.316;2023-05-14T08:14:24;14.27;;;10.05;;
32521;SDS011;18963;51.504;5.316;2023-05-14T08:16:49;16.67;;;10.55;;
32521;SDS011;18963;51.504;5.316;2023-05-14T08:19:15;15.30;;;10.82;;
32521;SDS011;18963;51.504;5.316;2023-05-14T08:21:40;16.08;;;10.23;;
32521;SDS011;18963;51.504;5.316;2023-05-14T08:24:06;13.75;;;10.23;;
32521;SDS011;18963;51.504;5.316;2023-05-14T08:26:32;13.38;;;9.95;;
32521;SDS011;18963;51.504;5.316;2023-05-14T08:28:57;16.38;;;10.23;;
32521;SDS011;18963;51.504;5.316;2023-05-14T08:31:23;13.55;;;9.57;;
32521;SDS011;18963;51.504;5.316;2023-05-14T08:33:48;13.65;;;9.73;;
32521;SDS011;18963;51.504;5.316;2023-05-14T08:39:05;12.98;;;10.00;;
32521;SDS011;18963;51.504;5.316;2023-05-14T08:41:33;12.93;;;9.63;;
32521;SDS011;18963;51.504;5.316;2023-05-14T08:44:02;12.95;;;8.82;;
32521;SDS011;18963;51.504;5.316;2023-05-14T08:46:33;11.95;;;8.73;;
32521;SDS011;18963;51.504;5.316;2023-05-14T08:49:06;13.20;;;9.70;;
32521;SDS011;18963;51.504;5.316;2023-05-14T08:51:42;12.70;;;9.32;;
32521;SDS011;18963;51.504;5.316;2023-05-14T08:54:11;14.32;;;9.43;;
32521;SDS011;18963;51.504;5.316;2023-05-14T08:56:40;11.35;;;8.27;;
32521;SDS011;18963;51.504;5.316;2023-05-14T08:59:07;12.80;;;8.40;;
32521;SDS011;18963;51.504;5.316;2023-05-14T09:01:33;14.75;;;8.27;;
32521;SDS011;18963;51.504;5.316;2023-05-14T09:03:59;10.70;;;8.35;;
32521;SDS011;18963;51.504;5.316;2023-05-14T09:06:30;11.85;;;6.80;;
32521;SDS011;18963;51.504;5.316;2023-05-14T09:08:56;9.60;;;5.32;;
32521;SDS011;18963;51.504;5.316;2023-05-14T09:11:22;9.55;;;6.60;;
32521;SDS011;18963;51.504;5.316;2023-05-14T09:13:48;10.55;;;6.30;;
32521;SDS011;18963;51.504;5.316;2023-05-14T09:16:14;12.70;;;7.13;;
32521;SDS011;18963;51.504;5.316;2023-05-14T09:18:42;11.38;;;6.70;;
32521;SDS011;18963;51.504;5.316;2023-05-14T09:21:09;10.93;;;6.30;;
32521;SDS011;18963;51.504;5.316;2023-05-14T09:23:37;11.70;;;6.20;;
32521;SDS011;18963;51.504;5.316;2023-05-14T09:26:06;11.68;;;6.13;;
32521;SDS011;18963;51.504;5.316;2023-05-14T09:28:31;11.10;;;6.57;;
32521;SDS011;18963;51.504;5.316;2023-05-14T09:30:57;10.40;;;6.22;;
32521;SDS011;18963;51.504;5.316;2023-05-14T09:33:26;10.45;;;7.63;;
32521;SDS011;18963;51.504;5.316;2023-05-14T09:35:59;11.48;;;8.63;;
32521;SDS011;18963;51.504;5.316;2023-05-14T09:38:31;13.75;;;7.53;;
32521;SDS011;18963;51.504;5.316;2023-05-14T09:40:58;12.05;;;6.95;;
32521;SDS011;18963;51.504;5.316;2023-05-14T09:43:24;10.10;;;7.25;;
32521;SDS011;18963;51.504;5.316;2023-05-14T09:45:51;14.70;;;7.75;;
32521;SDS011;18963;51.504;5.316;2023-05-14T09:48:17;9.70;;;6.55;;
32521;SDS011;18963;51.504;5.316;2023-05-14T09:50:43;11.63;;;7.45;;
32521;SDS011;18963;51.504;5.316;2023-05-14T09:53:10;11.18;;;6.78;;
32521;SDS011;18963;51.504;5.316;2023-05-14T09:55:37;10.60;;;6.90;;
32521;SDS011;18963;51.504;5.316;2023-05-14T09:58:03;9.40;;;6.57;;
32521;SDS011;18963;51.504;5.316;2023-05-14T10:00:30;11.95;;;6.78;;
32521;SDS011;18963;51.504;5.316;2023-05-14T10:02:56;10.07;;;6.22;;
32521;SDS011;18963;51.504;5.316;2023-05-14T10:05:23;12.40;;;7.45;;
32521;SDS011;18963;51.504;5.316;2023-05-14T10:07:50;10.05;;;6.65;;
32521;SDS011;18963;51.504;5.316;2023-05-14T10:10:18;12.38;;;6.00;;
32521;SDS011;18963;51.504;5.316;2023-05-14T10:12:57;9.68;;;6.47;;
32521;SDS011;18963;51.504;5.316;2023-05-14T10:15:38;10.82;;;6.15;;
32521;SDS011;18963;51.504;5.316;2023-05-14T10:18:11;9.80;;;5.97;;
32521;SDS011;18963;51.504;5.316;2023-05-14T10:20:40;11.30;;;6.38;;
32521;SDS011;18963;51.504;5.316;2023-05-14T10:23:06;9.88;;;6.53;;
32521;SDS011;18963;51.504;5.316;2023-05-14T10:25:32;10.32;;;6.50;;
32521;SDS011;18963;51.504;5.316;2023-05-14T10:28:01;10.43;;;6.95;;
32521;SDS011;18963;51.504;5.316;2023-05-14T10:30:28;8.88;;;6.50;;
32521;SDS011;18963;51.504;5.316;2023-05-14T10:33:12;9.63;;;7.07;;
32521;SDS011;18963;51.504;5.316;2023-05-14T10:38:29;9.52;;;6.30;;
32521;SDS011;18963;51.504;5.316;2023-05-14T10:41:06;11.70;;;7.25;;
32521;SDS011;18963;51.504;5.316;2023-05-14T10:43:38;10.18;;;6.65;;
32521;SDS011;18963;51.504;5.316;2023-05-14T10:46:06;10.50;;;6.57;;
32521;SDS011;18963;51.504;5.316;2023-05-14T10:48:32;11.13;;;6.30;;
32521;SDS011;18963;51.504;5.316;2023-05-14T10:50:59;10.43;;;7.57;;
32521;SDS011;18963;51.504;5.316;2023-05-14T10:53:30;11.85;;;6.47;;
32521;SDS011;18963;51.504;5.316;2023-05-14T10:58:34;10.50;;;6.97;;
32521;SDS011;18963;51.504;5.316;2023-05-14T11:01:01;9.32;;;6.35;;
32521;SDS011;18963;51.504;5.316;2023-05-14T11:03:30;9.13;;;6.50;;
32521;SDS011;18963;51.504;5.316;2023-05-14T11:05:56;8.80;;;6.60;;
32521;SDS011;18963;51.504;5.316;2023-05-14T11:08:23;10.10;;;6.82;;
32521;SDS011;18963;51.504;5.316;2023-05-14T11:10:51;10.55;;;5.80;;
32521;SDS011;18963;51.504;5.316;2023-05-14T11:13:19;7.82;;;5.70;;
32521;SDS011;18963;51.504;5.316;2023-05-14T11:15:45;10.18;;;6.47;;
32521;SDS011;18963;51.504;5.316;2023-05-14T11:18:12;9.15;;;6.18;;
32521;SDS011;18963;51.504;5.316;2023-05-14T11:20:38;11.13;;;6.68;;
32521;SDS011;18963;51.504;5.316;2023-05-14T11:23:04;8.05;;;5.50;;
32521;SDS011;18963;51.504;5.316;2023-05-14T11:25:30;10.38;;;6.55;;
32521;SDS011;18963;51.504;5.316;2023-05-14T11:27:55;8.75;;;5.93;;
32521;SDS011;18963;51.504;5.316;2023-05-14T11:30:23;8.82;;;5.93;;
32521;SDS011;18963;51.504;5.316;2023-05-14T11:32:49;7.10;;;5.43;;
32521;SDS011;18963;51.504;5.316;2023-05-14T11:35:15;8.98;;;5.78;;
32521;SDS011;18963;51.504;5.316;2023-05-14T11:37:42;9.48;;;5.35;;
32521;SDS011;18963;51.504;5.316;2023-05-14T11:40:14;8.57;;;5.72;;
32521;SDS011;18963;51.504;5.316;2023-05-14T11:42:40;8.35;;;5.40;;
32521;SDS011;18963;51.504;5.316;2023-05-14T11:45:06;8.75;;;5.60;;
32521;SDS011;18963;51.504;5.316;2023-05-14T11:47:35;9.40;;;6.38;;
32521;SDS011;18963;51.504;5.316;2023-05-14T11:50:01;8.77;;;5.95;;
32521;SDS011;18963;51.504;5.316;2023-05-14T11:52:27;8.05;;;5.90;;
32521;SDS011;18963;51.504;5.316;2023-05-14T11:54:53;8.35;;;6.47;;
32521;SDS011;18963;51.504;5.316;2023-05-14T11:57:19;8.23;;;6.30;;
32521;SDS011;18963;51.504;5.316;2023-05-14T11:59:46;7.63;;;5.78;;
32521;SDS011;18963;51.504;5.316;2023-05-14T12:02:14;10.68;;;6.15;;
32521;SDS011;18963;51.504;5.316;2023-05-14T12:04:42;9.35;;;6.00;;
32521;SDS011;18963;51.504;5.316;2023-05-14T12:07:12;7.05;;;5.07;;
32521;SDS011;18963;51.504;5.316;2023-05-14T12:09:40;6.60;;;5.25;;
32521;SDS011;18963;51.504;5.316;2023-05-14T12:12:08;6.75;;;4.80;;
32521;SDS011;18963;51.504;5.316;2023-05-14T12:14:38;7.63;;;5.35;;
32521;SDS011;18963;51.504;5.316;2023-05-14T12:17:10;8.25;;;5.72;;
32521;SDS011;18963;51.504;5.316;2023-05-14T12:19:40;8.38;;;6.07;;
32521;SDS011;18963;51.504;5.316;2023-05-14T12:22:07;7.28;;;5.90;;
32521;SDS011;18963;51.504;5.316;2023-05-14T12:24:34;6.85;;;5.15;;
32521;SDS011;18963;51.504;5.316;2023-05-14T12:27:00;6.50;;;5.22;;
32521;SDS011;18963;51.504;5.316;2023-05-14T12:29:26;9.23;;;6.32;;
32521;SDS011;18963;51.504;5.316;2023-05-14T12:31:52;7.47;;;5.60;;
32521;SDS011;18963;51.504;5.316;2023-05-14T12:34:17;9.20;;;6.20;;
32521;SDS011;18963;51.504;5.316;2023-05-14T12:36:43;8.50;;;4.90;;
32521;SDS011;18963;51.504;5.316;2023-05-14T12:39:09;6.32;;;5.13;;
32521;SDS011;18963;51.504;5.316;2023-05-14T12:41:36;8.57;;;5.22;;
32521;SDS011;18963;51.504;5.316;2023-05-14T12:44:02;8.63;;;5.32;;
32521;SDS011;18963;51.504;5.316;2023-05-14T12:46:29;8.10;;;5.82;;
32521;SDS011;18963;51.504;5.316;2023-05-14T12:48:55;10.55;;;5.70;;
32521;SDS011;18963;51.504;5.316;2023-05-14T12:51:21;6.88;;;5.35;;
32521;SDS011;18963;51.504;5.316;2023-05-14T12:53:47;8.20;;;5.13;;
32521;SDS011;18963;51.504;5.316;2023-05-14T12:56:13;6.78;;;5.05;;
32521;SDS011;18963;51.504;5.316;2023-05-14T12:58:39;6.55;;;4.60;;
32521;SDS011;18963;51.504;5.316;2023-05-14T13:01:05;6.68;;;4.70;;
32521;SDS011;18963;51.504;5.316;2023-05-14T13:03:31;7.78;;;5.03;;
32521;SDS011;18963;51.504;5.316;2023-05-14T13:05:57;7.22;;;4.85;;
32521;SDS011;18963;51.504;5.316;2023-05-14T13:08:23;6.97;;;5.03;;
32521;SDS011;18963;51.504;5.316;2023-05-14T13:10:50;8.88;;;5.15;;
32521;SDS011;18963;51.504;5.316;2023-05-14T13:13:16;8.80;;;4.68;;
32521;SDS011;18963;51.504;5.316;2023-05-14T13:15:42;9.48;;;4.88;;
32521;SDS011;18963;51.504;5.316;2023-05-14T13:18:08;6.93;;;4.90;;
32521;SDS011;18963;51.504;5.316;2023-05-14T13:20:33;7.30;;;4.97;;
32521;SDS011;18963;51.504;5.316;2023-05-14T13:22:59;6.55;;;4.35;;
32521;SDS011;18963;51.504;5.316;2023-05-14T13:25:25;6.25;;;4.78;;
32521;SDS011;18963;51.504;5.316;2023-05-14T13:27:51;8.98;;;5.50;;
32521;SDS011;18963;51.504;5.316;2023-05-14T13:30:17;8.10;;;5.15;;
32521;SDS011;18963;51.504;5.316;2023-05-14T13:32:43;7.32;;;5.20;;
32521;SDS011;18963;51.504;5.316;2023-05-14T13:35:09;6.00;;;5.00;;
32521;SDS011;18963;51.504;5.316;2023-05-14T13:37:35;8.57;;;5.10;;
32521;SDS011;18963;51.504;5.316;2023-05-14T13:40:01;6.15;;;5.07;;
32521;SDS011;18963;51.504;5.316;2023-05-14T13:42:28;7.30;;;5.30;;
32521;SDS011;18963;51.504;5.316;2023-05-14T13:44:54;8.02;;;5.38;;
32521;SDS011;18963;51.504;5.316;2023-05-14T13:47:21;8.82;;;5.05;;
32521;SDS011;18963;51.504;5.316;2023-05-14T13:49:46;7.50;;;5.68;;
32521;SDS011;18963;51.504;5.316;2023-05-14T13:52:12;5.55;;;4.55;;
32521;SDS011;18963;51.504;5.316;2023-05-14T13:54:38;6.93;;;4.65;;
32521;SDS011;18963;51.504;5.316;2023-05-14T13:57:03;6.50;;;4.97;;
32521;SDS011;18963;51.504;5.316;2023-05-14T13:59:29;6.35;;;4.88;;
32521;SDS011;18963;51.504;5.316;2023-05-14T14:01:55;8.30;;;5.50;;
32521;SDS011;18963;51.504;5.316;2023-05-14T14:04:20;6.10;;;5.10;;
32521;SDS011;18963;51.504;5.316;2023-05-14T14:06:46;7.57;;;5.20;;
32521;SDS011;18963;51.504;5.316;2023-05-14T14:09:13;7.85;;;4.80;;
32521;SDS011;18963;51.504;5.316;2023-05-14T14:11:39;8.35;;;4.82;;
32521;SDS011;18963;51.504;5.316;2023-05-14T14:14:05;8.10;;;5.13;;
32521;SDS011;18963;51.504;5.316;2023-05-14T14:16:30;7.18;;;4.80;;
32521;SDS011;18963;51.504;5.316;2023-05-14T14:18:56;6.82;;;5.10;;
32521;SDS011;18963;51.504;5.316;2023-05-14T14:21:21;6.28;;;4.65;;
32521;SDS011;18963;51.504;5.316;2023-05-14T14:23:47;5.68;;;4.85;;
32521;SDS011;18963;51.504;5.316;2023-05-14T14:26:13;6.50;;;4.78;;
32521;SDS011;18963;51.504;5.316;2023-05-14T14:28:38;7.22;;;4.95;;
32521;SDS011;18963;51.504;5.316;2023-05-14T14:31:04;6.30;;;4.55;;
32521;SDS011;18963;51.504;5.316;2023-05-14T14:33:30;8.38;;;4.97;;
32521;SDS011;18963;51.504;5.316;2023-05-14T14:35:56;6.57;;;4.88;;
32521;SDS011;18963;51.504;5.316;2023-05-14T14:38:21;6.18;;;4.75;;
32521;SDS011;18963;51.504;5.316;2023-05-14T14:40:47;6.18;;;5.40;;
32521;SDS011;18963;51.504;5.316;2023-05-14T14:43:12;7.80;;;5.47;;
32521;SDS011;18963;51.504;5.316;2023-05-14T14:45:38;7.70;;;5.15;;
32521;SDS011;18963;51.504;5.316;2023-05-14T14:51:02;9.75;;;5.22;;
32521;SDS011;18963;51.504;5.316;2023-05-14T14:53:29;7.43;;;5.22;;
32521;SDS011;18963;51.504;5.316;2023-05-14T14:55:56;6.80;;;5.10;;
32521;SDS011;18963;51.504;5.316;2023-05-14T14:58:21;7.43;;;4.80;;
32521;SDS011;18963;51.504;5.316;2023-05-14T15:00:48;6.30;;;4.80;;
32521;SDS011;18963;51.504;5.316;2023-05-14T15:03:16;8.60;;;5.25;;
32521;SDS011;18963;51.504;5.316;2023-05-14T15:05:42;5.65;;;4.70;;
32521;SDS011;18963;51.504;5.316;2023-05-14T15:08:09;7.70;;;5.07;;
32521;SDS011;18963;51.504;5.316;2023-05-14T15:10:35;8.27;;;4.72;;
32521;SDS011;18963;51.504;5.316;2023-05-14T15:13:02;6.45;;;4.90;;
32521;SDS011;18963;51.504;5.316;2023-05-14T15:15:29;7.05;;;4.78;;
32521;SDS011;18963;51.504;5.316;2023-05-14T15:17:55;6.35;;;4.65;;
32521;SDS011;18963;51.504;5.316;2023-05-14T15:20:21;6.70;;;5.25;;
32521;SDS011;18963;51.504;5.316;2023-05-14T15:22:46;7.20;;;5.00;;
32521;SDS011;18963;51.504;5.316;2023-05-14T15:25:16;6.60;;;5.10;;
32521;SDS011;18963;51.504;5.316;2023-05-14T15:27:42;5.75;;;4.65;;
32521;SDS011;18963;51.504;5.316;2023-05-14T15:30:08;7.45;;;5.22;;
32521;SDS011;18963;51.504;5.316;2023-05-14T15:32:34;7.10;;;5.22;;
32521;SDS011;18963;51.504;5.316;2023-05-14T15:34:59;6.07;;;4.95;;
32521;SDS011;18963;51.504;5.316;2023-05-14T15:37:25;7.40;;;5.15;;
32521;SDS011;18963;51.504;5.316;2023-05-14T15:39:51;6.07;;;4.60;;
32521;SDS011;18963;51.504;5.316;2023-05-14T15:42:16;7.50;;;4.90;;
32521;SDS011;18963;51.504;5.316;2023-05-14T15:44:43;6.80;;;5.20;;
32521;SDS011;18963;51.504;5.316;2023-05-14T15:47:09;7.15;;;5.00;;
32521;SDS011;18963;51.504;5.316;2023-05-14T15:49:35;8.05;;;5.53;;